createdAt,value
2023-03-27T00:01:15.293Z,47.60
2023-03-27T00:03:44.033Z,47.50
2023-03-27T00:06:16.257Z,47.50
2023-03-27T00:08:44.330Z,47.50
2023-03-27T00:11:13.728Z,47.50
2023-03-27T00:13:49.352Z,47.50
2023-03-27T00:16:18.870Z,47.40
2023-03-27T00:18:46.854Z,47.40
2023-03-27T00:21:15.129Z,47.40
2023-03-27T00:23:43.628Z,47.40
2023-03-27T00:26:13.320Z,47.40
2023-03-27T00:28:41.410Z,47.40
2023-03-27T00:31:11.357Z,47.50
2023-03-27T00:33:39.568Z,47.40
2023-03-27T00:36:07.960Z,47.50
2023-03-27T00:38:36.069Z,48.00
2023-03-27T00:41:04.771Z,47.50
2023-03-27T00:43:34.699Z,47.50
2023-03-27T00:46:03.692Z,47.60
2023-03-27T00:48:32.734Z,47.60
2023-03-27T00:51:00.429Z,47.50
2023-03-27T00:53:29.371Z,47.40
2023-03-27T00:55:58.607Z,47.60
2023-03-27T00:58:28.209Z,47.60
2023-03-27T01:00:58.290Z,47.60
2023-03-27T01:03:28.456Z,47.60
2023-03-27T01:05:56.166Z,47.70
2023-03-27T01:08:24.833Z,47.70
2023-03-27T01:10:57.440Z,47.70
2023-03-27T01:13:33.329Z,47.70
2023-03-27T01:16:05.647Z,47.70
2023-03-27T01:18:38.923Z,47.70
2023-03-27T01:21:33.279Z,47.80
2023-03-27T01:24:50.216Z,47.70
2023-03-27T01:27:19.481Z,47.90
2023-03-27T01:30:01.753Z,48.00
2023-03-27T01:33:07.093Z,47.90
2023-03-27T01:36:05.794Z,48.10
2023-03-27T01:39:07.379Z,48.10
2023-03-27T01:41:40.074Z,48.10
2023-03-27T01:44:12.841Z,48.00
2023-03-27T01:46:43.012Z,48.10
2023-03-27T01:49:12.822Z,48.20
2023-03-27T01:51:41.747Z,48.20
2023-03-27T01:54:11.321Z,48.20
2023-03-27T01:56:42.226Z,48.40
2023-03-27T01:59:11.275Z,48.20
2023-03-27T02:01:40.914Z,48.20
2023-03-27T02:04:10.395Z,48.20
2023-03-27T02:06:39.361Z,48.20
2023-03-27T02:09:09.108Z,48.30
2023-03-27T02:11:38.531Z,48.30
2023-03-27T02:14:09.971Z,48.20
2023-03-27T02:16:42.406Z,48.20
2023-03-27T02:19:13.106Z,48.20
2023-03-27T02:21:41.018Z,48.00
2023-03-27T02:24:08.961Z,48.20
2023-03-27T02:26:37.192Z,48.20
2023-03-27T02:29:27.824Z,48.00
2023-03-27T02:32:02.591Z,47.90
2023-03-27T02:34:43.391Z,48.10
2023-03-27T02:37:17.588Z,48.00
2023-03-27T02:39:48.941Z,48.00
2023-03-27T02:42:19.026Z,48.00
2023-03-27T02:44:51.640Z,48.00
2023-03-27T02:47:23.586Z,47.90
2023-03-27T02:49:52.847Z,48.00
2023-03-27T02:52:24.360Z,48.00
2023-03-27T02:54:53.321Z,48.00
2023-03-27T02:57:24.930Z,48.00
2023-03-27T02:59:55.826Z,47.90
2023-03-27T03:02:25.573Z,48.00
2023-03-27T03:04:58.147Z,48.00
2023-03-27T03:07:26.882Z,47.90
2023-03-27T03:09:54.882Z,47.90
2023-03-27T03:12:23.588Z,47.90
2023-03-27T03:14:52.168Z,47.80
2023-03-27T03:17:22.313Z,47.90
2023-03-27T03:19:50.116Z,47.80
2023-03-27T03:22:18.124Z,47.80
2023-03-27T03:24:46.065Z,47.90
2023-03-27T03:27:14.665Z,47.90
2023-03-27T03:29:44.196Z,47.80
2023-03-27T03:32:12.615Z,47.80
2023-03-27T03:34:46.483Z,47.80
2023-03-27T03:37:14.232Z,47.70
2023-03-27T03:39:42.325Z,47.70
2023-03-27T03:42:10.290Z,47.60
2023-03-27T03:44:51.052Z,47.70
2023-03-27T03:47:19.033Z,47.80
2023-03-27T03:49:48.833Z,47.80
2023-03-27T03:52:16.664Z,47.70
2023-03-27T03:54:46.673Z,47.70
2023-03-27T03:57:15.412Z,47.80
2023-03-27T03:59:43.639Z,47.70
2023-03-27T04:02:12.885Z,47.80
2023-03-27T04:04:43.778Z,47.80
2023-03-27T04:07:18.104Z,47.70
2023-03-27T04:09:46.065Z,47.70
2023-03-27T04:12:14.344Z,47.80
2023-03-27T04:14:42.455Z,47.60
2023-03-27T04:17:11.338Z,47.70
2023-03-27T04:19:39.371Z,47.80
2023-03-27T04:22:07.437Z,47.70
2023-03-27T04:24:37.620Z,47.70
2023-03-27T04:27:05.741Z,47.60
2023-03-27T04:29:34.310Z,47.70
2023-03-27T04:32:02.405Z,47.60
2023-03-27T04:34:30.705Z,47.70
2023-03-27T04:36:58.635Z,47.70
2023-03-27T04:39:27.006Z,47.60
2023-03-27T04:41:58.383Z,47.60
2023-03-27T04:44:26.245Z,47.70
2023-03-27T04:46:54.172Z,47.70
2023-03-27T04:49:22.462Z,47.60
2023-03-27T04:51:50.184Z,47.70
2023-03-27T04:54:18.381Z,47.70
2023-03-27T04:56:47.179Z,47.70
2023-03-27T04:59:16.514Z,47.60
2023-03-27T05:01:44.938Z,47.70
2023-03-27T05:04:12.761Z,47.70
2023-03-27T05:06:41.658Z,47.70
2023-03-27T05:09:10.003Z,47.50
2023-03-27T05:11:38.384Z,47.60
2023-03-27T05:14:06.130Z,47.60
2023-03-27T05:16:36.128Z,47.70
2023-03-27T05:19:05.010Z,47.60
2023-03-27T05:21:32.860Z,47.60
2023-03-27T05:24:01.016Z,47.70
2023-03-27T05:26:28.740Z,47.70
2023-03-27T05:28:58.901Z,47.60
2023-03-27T05:31:27.977Z,47.60
2023-03-27T05:33:58.539Z,47.70
2023-03-27T05:36:27.514Z,47.70
2023-03-27T05:38:56.562Z,47.60
2023-03-27T05:41:24.850Z,47.70
2023-03-27T05:43:52.924Z,47.60
2023-03-27T05:46:21.716Z,47.70
2023-03-27T05:48:49.696Z,47.70
2023-03-27T05:51:19.415Z,47.70
2023-03-27T05:53:47.157Z,47.70
2023-03-27T05:56:15.247Z,47.80
2023-03-27T05:58:43.008Z,47.70
2023-03-27T06:01:12.288Z,47.80
2023-03-27T06:03:40.297Z,48.00
2023-03-27T06:06:08.963Z,48.00
2023-03-27T06:08:38.742Z,47.90
2023-03-27T06:11:09.786Z,47.80
2023-03-27T06:13:38.118Z,47.90
2023-03-27T06:16:07.019Z,47.90
2023-03-27T06:18:35.532Z,48.00
2023-03-27T06:21:03.551Z,48.00
2023-03-27T06:23:32.353Z,47.90
2023-03-27T06:26:02.013Z,48.00
2023-03-27T06:28:30.431Z,48.00
2023-03-27T06:30:59.699Z,48.10
2023-03-27T06:33:28.557Z,48.10
2023-03-27T06:36:00.726Z,48.20
2023-03-27T06:38:29.992Z,48.20
2023-03-27T06:40:59.522Z,48.30
2023-03-27T06:43:28.947Z,48.40
2023-03-27T06:45:57.114Z,48.20
2023-03-27T06:48:25.214Z,48.30
2023-03-27T06:50:54.508Z,48.40
2023-03-27T06:53:27.941Z,48.40
2023-03-27T06:55:57.145Z,48.50
2023-03-27T06:58:25.977Z,48.60
2023-03-27T07:00:55.375Z,48.70
2023-03-27T07:03:24.300Z,48.60
2023-03-27T07:05:52.233Z,48.80
2023-03-27T07:08:24.942Z,49.00
2023-03-27T07:13:25.380Z,49.00
2023-03-27T07:15:53.668Z,49.10
2023-03-27T07:18:23.117Z,49.20
2023-03-27T07:20:51.387Z,49.30
2023-03-27T07:23:19.397Z,49.40
2023-03-27T07:25:49.893Z,49.40
2023-03-27T07:28:18.569Z,49.40
2023-03-27T07:30:46.629Z,49.50
2023-03-27T07:33:15.434Z,49.50
2023-03-27T07:35:45.262Z,49.60
2023-03-27T07:38:14.662Z,49.60
2023-03-27T07:40:43.972Z,49.80
2023-03-27T07:43:12.741Z,49.90
2023-03-27T07:45:41.217Z,49.80
2023-03-27T07:48:09.944Z,49.70
2023-03-27T07:50:38.660Z,49.80
2023-03-27T07:53:08.210Z,49.90
2023-03-27T07:55:38.022Z,50.10
2023-03-27T07:58:07.015Z,50.20
2023-03-27T08:00:36.190Z,50.10
2023-03-27T08:03:07.785Z,50.40
2023-03-27T08:05:39.133Z,50.50
2023-03-27T08:08:14.066Z,50.60
2023-03-27T08:10:41.936Z,50.70
2023-03-27T08:13:10.615Z,51.00
2023-03-27T08:15:38.512Z,51.00
2023-03-27T08:18:07.255Z,51.00
2023-03-27T08:20:35.711Z,51.30
2023-03-27T08:23:04.270Z,51.50
2023-03-27T08:25:34.735Z,51.60
2023-03-27T08:28:03.069Z,45.00
2023-03-27T08:30:31.778Z,42.60
2023-03-27T08:33:00.052Z,43.70
2023-03-27T08:35:28.675Z,42.30
2023-03-27T08:37:56.417Z,41.40
2023-03-27T08:40:26.222Z,41.10
2023-03-27T08:42:56.797Z,41.20
2023-03-27T08:45:27.108Z,47.00
2023-03-27T08:47:57.845Z,47.90
2023-03-27T08:50:32.260Z,48.20
2023-03-27T08:53:00.872Z,48.90
2023-03-27T08:55:34.878Z,49.70
2023-03-27T08:58:04.185Z,50.20
2023-03-27T09:00:35.362Z,50.30
2023-03-27T09:03:06.606Z,50.30
2023-03-27T09:05:36.681Z,50.40
2023-03-27T09:08:06.151Z,50.10
2023-03-27T09:10:35.836Z,50.10
2023-03-27T09:13:10.102Z,50.40
2023-03-27T09:15:39.447Z,50.60
2023-03-27T09:18:08.367Z,50.90
2023-03-27T09:20:37.708Z,51.00
2023-03-27T09:23:10.993Z,50.90
2023-03-27T09:25:40.258Z,51.00
2023-03-27T09:28:15.981Z,50.90
2023-03-27T09:30:44.011Z,51.20
2023-03-27T09:33:12.378Z,51.50
2023-03-27T09:35:41.173Z,51.90
2023-03-27T09:38:29.239Z,52.00
2023-03-27T09:40:59.659Z,52.00
2023-03-27T09:43:31.852Z,52.30
2023-03-27T09:45:59.899Z,52.40
2023-03-27T09:48:32.989Z,52.50
2023-03-27T09:51:02.534Z,52.60
2023-03-27T09:53:30.832Z,52.10
2023-03-27T09:56:01.083Z,51.90
2023-03-27T09:58:34.992Z,51.90
2023-03-27T10:01:17.589Z,51.80
2023-03-27T10:03:50.135Z,48.90
2023-03-27T10:06:25.862Z,46.70
2023-03-27T10:08:55.376Z,45.40
2023-03-27T10:11:24.297Z,44.40
2023-03-27T10:13:53.650Z,44.00
2023-03-27T10:16:24.668Z,43.80
2023-03-27T10:18:55.608Z,43.90
2023-03-27T10:21:28.858Z,43.50
2023-03-27T10:24:01.903Z,42.40
2023-03-27T10:26:30.067Z,42.20
2023-03-27T10:29:02.752Z,42.30
2023-03-27T10:31:32.129Z,42.50
2023-03-27T10:34:02.252Z,42.40
2023-03-27T10:36:34.428Z,42.50
2023-03-27T10:39:03.716Z,42.60
2023-03-27T10:41:31.418Z,42.60
2023-03-27T10:44:00.673Z,42.80
2023-03-27T10:46:29.247Z,43.10
2023-03-27T10:49:01.543Z,43.30
2023-03-27T10:51:45.608Z,43.00
2023-03-27T10:54:18.170Z,41.90
2023-03-27T10:56:51.921Z,41.60
2023-03-27T10:59:34.508Z,41.50
2023-03-27T11:02:13.964Z,41.80
2023-03-27T11:04:58.827Z,41.90
2023-03-27T11:07:34.137Z,42.30
2023-03-27T11:10:04.571Z,42.30
2023-03-27T11:13:07.449Z,41.90
2023-03-27T11:15:39.727Z,41.30
2023-03-27T11:18:10.852Z,41.10
2023-03-27T11:20:44.493Z,41.40
2023-03-27T11:23:14.598Z,41.20
2023-03-27T11:25:44.723Z,42.00
2023-03-27T11:28:19.335Z,41.30
2023-03-27T11:30:50.580Z,40.80
2023-03-27T11:33:39.444Z,40.40
2023-03-27T11:36:32.756Z,40.40
2023-03-27T11:39:06.643Z,40.70
2023-03-27T11:41:37.543Z,40.90
2023-03-27T11:44:08.400Z,40.90
2023-03-27T11:46:47.923Z,41.20
2023-03-27T11:49:35.074Z,41.60
2023-03-27T11:52:08.664Z,42.80
2023-03-27T11:54:47.947Z,43.20
2023-03-27T11:57:21.560Z,44.10
2023-03-27T12:00:06.172Z,44.10
2023-03-27T12:03:01.716Z,43.90
2023-03-27T12:05:38.522Z,43.60
2023-03-27T12:08:09.215Z,43.60
2023-03-27T12:10:38.417Z,43.40
2023-03-27T12:13:38.570Z,43.20
2023-03-27T12:16:27.409Z,43.00
2023-03-27T12:19:05.930Z,42.80
2023-03-27T12:21:54.550Z,42.60
2023-03-27T12:24:35.625Z,42.70
2023-03-27T12:27:20.107Z,43.10
2023-03-27T12:30:06.082Z,43.40
2023-03-27T12:32:55.396Z,43.70
2023-03-27T12:35:27.123Z,44.20
2023-03-27T12:37:58.544Z,44.40
2023-03-27T12:40:29.508Z,44.40
2023-03-27T12:43:07.032Z,44.60
2023-03-27T12:45:38.930Z,44.80
2023-03-27T12:48:19.944Z,45.20
2023-03-27T12:50:56.116Z,45.40
2023-03-27T12:53:47.261Z,45.00
2023-03-27T12:56:33.168Z,44.80
2023-03-27T12:59:01.333Z,44.50
2023-03-27T13:01:52.712Z,44.20
2023-03-27T13:04:41.593Z,44.00
2023-03-27T13:07:12.194Z,43.80
2023-03-27T13:09:48.903Z,43.20
2023-03-27T13:12:38.637Z,43.40
2023-03-27T13:15:19.519Z,43.70
2023-03-27T13:17:58.588Z,44.20
2023-03-27T13:20:30.506Z,44.80
2023-03-27T13:23:08.773Z,44.50
2023-03-27T13:25:48.173Z,44.00
2023-03-27T13:28:31.307Z,43.60
2023-03-27T13:31:00.048Z,43.20
2023-03-27T13:33:38.985Z,43.50
2023-03-27T13:36:12.118Z,43.40
2023-03-27T13:39:24.830Z,43.20
2023-03-27T13:42:05.997Z,42.70
2023-03-27T13:44:56.300Z,42.80
2023-03-27T13:48:15.247Z,42.80
2023-03-27T13:51:21.869Z,43.60
2023-03-27T13:53:58.634Z,44.50
2023-03-27T13:56:34.241Z,45.20
2023-03-27T13:59:28.174Z,46.20
2023-03-27T14:02:01.091Z,46.80
2023-03-27T14:04:57.302Z,46.50
2023-03-27T14:07:56.244Z,46.40
2023-03-27T14:10:32.682Z,46.70
2023-03-27T14:13:09.156Z,46.40
2023-03-27T14:15:47.730Z,45.50
2023-03-27T14:18:30.157Z,45.00
2023-03-27T14:20:58.110Z,45.20
2023-03-27T14:23:28.454Z,44.70
2023-03-27T14:26:00.153Z,45.10
2023-03-27T14:28:32.680Z,45.70
2023-03-27T14:31:02.825Z,46.40
2023-03-27T14:33:30.851Z,46.10
2023-03-27T14:36:03.336Z,46.30
2023-03-27T14:38:32.311Z,46.80
2023-03-27T14:41:00.916Z,47.10
2023-03-27T14:43:30.544Z,47.20
2023-03-27T14:46:01.294Z,47.50
2023-03-27T14:48:31.256Z,47.30
2023-03-27T14:51:01.840Z,47.10
2023-03-27T14:53:31.421Z,47.10
2023-03-27T14:56:05.785Z,46.90
2023-03-27T14:58:35.417Z,47.50
2023-03-27T15:01:03.299Z,47.20
2023-03-27T15:03:35.372Z,47.10
2023-03-27T15:06:04.645Z,46.80
2023-03-27T15:08:36.928Z,46.50
2023-03-27T15:11:07.312Z,46.50
2023-03-27T15:13:36.941Z,46.20
2023-03-27T15:16:06.622Z,46.40
2023-03-27T15:18:36.481Z,46.50
2023-03-27T15:21:05.288Z,46.10
2023-03-27T15:23:36.820Z,46.00
2023-03-27T15:26:06.447Z,46.10
2023-03-27T15:28:38.112Z,46.30
2023-03-27T15:31:06.994Z,46.40
2023-03-27T15:33:36.699Z,46.40
2023-03-27T15:36:06.232Z,46.30
2023-03-27T15:38:34.558Z,46.30
2023-03-27T15:41:03.798Z,46.30
2023-03-27T15:43:32.116Z,46.20
2023-03-27T15:46:13.535Z,46.20
2023-03-27T15:48:44.040Z,46.10
2023-03-27T15:51:12.618Z,46.10
2023-03-27T15:53:41.209Z,46.00
2023-03-27T15:56:16.859Z,46.00
2023-03-27T15:58:47.210Z,45.90
2023-03-27T16:01:20.016Z,46.00
2023-03-27T16:03:50.457Z,46.00
2023-03-27T16:06:26.960Z,46.10
2023-03-27T16:08:54.917Z,46.00
2023-03-27T16:11:37.423Z,46.10
2023-03-27T16:14:05.391Z,46.30
2023-03-27T16:16:35.097Z,46.40
2023-03-27T16:19:03.340Z,46.50
2023-03-27T16:21:36.211Z,46.50
2023-03-27T16:24:04.111Z,46.60
2023-03-27T16:26:34.008Z,46.70
2023-03-27T16:29:02.687Z,46.80
2023-03-27T16:31:30.434Z,46.80
2023-03-27T16:33:59.914Z,47.00
2023-03-27T16:36:29.988Z,47.10
2023-03-27T16:38:57.884Z,47.10
2023-03-27T16:41:25.756Z,47.10
2023-03-27T16:43:53.649Z,47.10
2023-03-27T16:46:22.798Z,47.10
2023-03-27T16:48:51.754Z,47.30
2023-03-27T16:51:20.982Z,47.30
2023-03-27T16:53:48.995Z,47.30
2023-03-27T16:56:17.133Z,47.40
2023-03-27T16:58:45.154Z,47.30
2023-03-27T17:01:13.575Z,47.20
2023-03-27T17:03:42.284Z,47.10
2023-03-27T17:06:11.571Z,47.10
2023-03-27T17:08:41.234Z,47.20
2023-03-27T17:11:10.779Z,47.20
2023-03-27T17:13:40.931Z,47.10
2023-03-27T17:16:11.373Z,47.10
2023-03-27T17:18:39.440Z,47.00
2023-03-27T17:21:08.324Z,47.80
2023-03-27T17:23:36.557Z,47.10
2023-03-27T17:26:07.131Z,47.20
2023-03-27T17:28:36.246Z,47.20
2023-03-27T17:31:05.536Z,47.20
2023-03-27T17:33:36.799Z,47.20
2023-03-27T17:36:09.788Z,47.10
2023-03-27T17:38:38.089Z,47.20
2023-03-27T17:41:08.561Z,47.10
2023-03-27T17:43:36.696Z,47.20
2023-03-27T17:46:04.739Z,47.10
2023-03-27T17:48:34.039Z,47.10
2023-03-27T17:51:09.021Z,47.00
2023-03-27T17:53:38.118Z,47.20
2023-03-27T17:56:08.652Z,47.20
2023-03-27T17:58:37.141Z,47.30
2023-03-27T18:01:23.152Z,47.30
2023-03-27T18:03:51.766Z,47.30
2023-03-27T18:06:20.049Z,47.30
2023-03-27T18:08:48.080Z,47.40
2023-03-27T18:11:17.814Z,47.30
2023-03-27T18:13:51.283Z,47.30
2023-03-27T18:16:20.031Z,47.40
2023-03-27T18:18:48.075Z,47.50
2023-03-27T18:21:16.667Z,47.50
2023-03-27T18:23:45.994Z,47.50
2023-03-27T18:26:15.289Z,47.50
2023-03-27T18:28:44.816Z,47.60
2023-03-27T18:31:13.607Z,47.50
2023-03-27T18:33:41.757Z,47.60
2023-03-27T18:36:12.041Z,47.60
2023-03-27T18:38:40.809Z,47.60
2023-03-27T18:41:09.247Z,47.50
2023-03-27T18:43:37.361Z,47.50
2023-03-27T18:46:07.555Z,47.60
2023-03-27T18:48:35.777Z,47.60
2023-03-27T18:51:04.484Z,47.60
2023-03-27T18:53:32.401Z,47.50
2023-03-27T18:56:00.596Z,47.50
2023-03-27T18:58:29.292Z,47.60
2023-03-27T19:00:57.605Z,47.50
2023-03-27T19:03:30.347Z,47.60
2023-03-27T19:06:01.118Z,47.60
2023-03-27T19:08:29.648Z,48.60
2023-03-27T19:10:58.526Z,48.30
2023-03-27T19:13:26.714Z,48.30
2023-03-27T19:15:54.848Z,48.80
2023-03-27T19:18:25.195Z,48.40
2023-03-27T19:20:55.982Z,48.10
2023-03-27T19:23:24.005Z,47.80
2023-03-27T19:25:51.807Z,47.40
2023-03-27T19:28:20.528Z,47.30
2023-03-27T19:30:50.840Z,47.20
2023-03-27T19:33:18.814Z,46.90
2023-03-27T19:35:46.878Z,46.60
2023-03-27T19:38:16.613Z,46.50
2023-03-27T19:40:46.260Z,46.60
2023-03-27T19:43:14.176Z,46.60
2023-03-27T19:45:42.258Z,46.50
2023-03-27T19:48:10.358Z,46.60
2023-03-27T19:50:38.368Z,46.50
2023-03-27T19:53:09.033Z,46.60
2023-03-27T19:55:38.781Z,46.60
2023-03-27T19:58:06.683Z,46.70
2023-03-27T20:00:35.024Z,46.70
2023-03-27T20:03:03.213Z,46.70
2023-03-27T20:05:31.967Z,46.70
2023-03-27T20:08:00.181Z,46.70
2023-03-27T20:10:28.439Z,46.80
2023-03-27T20:12:57.760Z,46.80
2023-03-27T20:15:26.154Z,46.70
2023-03-27T20:17:54.230Z,46.80
2023-03-27T20:20:22.241Z,46.80
2023-03-27T20:22:58.608Z,46.80
2023-03-27T20:25:28.418Z,46.80
2023-03-27T20:27:58.079Z,46.90
2023-03-27T20:30:26.448Z,46.80
2023-03-27T20:32:54.496Z,47.00
2023-03-27T20:35:24.720Z,46.90
2023-03-27T20:37:57.806Z,46.90
2023-03-27T20:40:26.366Z,47.00
2023-03-27T20:43:03.564Z,47.00
2023-03-27T20:45:33.305Z,47.10
2023-03-27T20:48:04.158Z,47.00
2023-03-27T20:50:35.195Z,47.10
2023-03-27T20:53:05.042Z,47.10
2023-03-27T20:55:39.319Z,47.10
2023-03-27T20:58:09.647Z,47.30
2023-03-27T21:00:39.194Z,47.20
2023-03-27T21:03:07.898Z,47.20
2023-03-27T21:05:38.352Z,47.40
2023-03-27T21:08:07.450Z,47.30
2023-03-27T21:10:35.401Z,47.50
2023-03-27T21:13:03.410Z,48.20
2023-03-27T21:15:32.040Z,47.70
2023-03-27T21:18:01.554Z,47.60
2023-03-27T21:20:29.323Z,47.60
2023-03-27T21:22:57.662Z,47.80
2023-03-27T21:25:25.613Z,47.70
2023-03-27T21:27:54.017Z,48.00
2023-03-27T21:30:22.651Z,48.00
2023-03-27T21:32:51.136Z,48.00
2023-03-27T21:35:21.044Z,48.00
2023-03-27T21:37:48.853Z,48.10
2023-03-27T21:40:16.687Z,48.00
2023-03-27T21:42:44.531Z,48.00
2023-03-27T21:45:12.543Z,48.00
2023-03-27T21:47:47.569Z,48.00
2023-03-27T21:50:16.282Z,48.20
2023-03-27T21:52:45.767Z,48.10
2023-03-27T21:55:13.686Z,48.20
2023-03-27T21:57:41.630Z,48.20
2023-03-27T22:00:10.503Z,48.20
2023-03-27T22:02:38.413Z,48.20
2023-03-27T22:05:07.427Z,48.20
2023-03-27T22:07:35.268Z,48.20
2023-03-27T22:10:06.199Z,48.20
2023-03-27T22:12:36.049Z,48.40
2023-03-27T22:15:04.441Z,48.40
2023-03-27T22:17:32.385Z,48.30
2023-03-27T22:20:00.574Z,48.30
2023-03-27T22:22:28.623Z,48.50
2023-03-27T22:24:56.737Z,48.40
2023-03-27T22:27:26.554Z,48.40
2023-03-27T22:29:54.630Z,48.40
2023-03-27T22:32:22.650Z,48.30
2023-03-27T22:34:50.779Z,48.20
2023-03-27T22:37:19.669Z,48.40
2023-03-27T22:39:47.965Z,48.20
2023-03-27T22:42:16.027Z,48.30
2023-03-27T22:44:45.540Z,48.30
2023-03-27T22:47:13.871Z,48.20
2023-03-27T22:49:41.987Z,48.30
2023-03-27T22:52:10.482Z,48.20
2023-03-27T22:54:38.442Z,48.20
2023-03-27T22:57:06.735Z,48.20
2023-03-27T22:59:34.675Z,48.20
2023-03-27T23:02:04.343Z,48.20
2023-03-27T23:04:32.406Z,48.20
2023-03-27T23:07:01.582Z,48.20
2023-03-27T23:09:29.571Z,48.10
2023-03-27T23:11:57.537Z,48.30
2023-03-27T23:14:25.446Z,48.40
2023-03-27T23:16:53.875Z,48.30
2023-03-27T23:19:23.341Z,48.40
2023-03-27T23:21:53.540Z,48.30
2023-03-27T23:24:21.604Z,48.50
2023-03-27T23:26:49.688Z,48.50
2023-03-27T23:29:18.185Z,48.50
2023-03-27T23:31:46.290Z,48.50
2023-03-27T23:34:17.624Z,48.60
2023-03-27T23:36:53.270Z,48.60
2023-03-27T23:39:28.343Z,48.70
2023-03-27T23:42:02.691Z,48.80
2023-03-27T23:44:30.985Z,48.80
2023-03-27T23:46:59.055Z,48.80
2023-03-27T23:49:27.027Z,48.80
2023-03-27T23:51:56.489Z,48.90
2023-03-27T23:54:24.656Z,48.80
2023-03-27T23:56:53.038Z,48.80
2023-03-27T23:59:21.385Z,48.90
